Airfield :
LOGIN :

Register | Disclaimer

   EN    FR    IT 

 










Legend :    VFR   Marginal VFR   IFR   Intensive IFR   Very Intensive IFR
Visi :
Ceiling :
>= 8 km
>= 3000ft
5 to 8 km
1000 to 3000 ft
1500m to 5 km
500 to 1000 ft
800 to 1500m
200 to 500 ft
< 800m
< 200 ft
Symbols :   Thunderstorms  Fog  Heavy snow  Heavy precipitations  Wind > 20 kt
SIGMETs :     Misc.  Thunderstorms  Icing  Turbulence  Mountain Waves  Volcanic Ashes






- Airport Elevation : 427 ft
- IATA code : CIA


LIRA - Roma Ciampino

CURRENT METAR :
  • 221120Z 23006KT 140V270 CAVOK 33/17 Q1012

EXPIRED METARs :
  • 221050Z 18005KT 080V240 CAVOK 32/18 Q1012
  • 221020Z 20005KT 160V270 CAVOK 31/17 Q1012
  • 220950Z VRB05KT CAVOK 31/17 Q1012
  • 220920Z 27003KT 210V010 CAVOK 30/18 Q1012

TAF TAF LIRA
Valid from the 22 at 12:00 until the 23 at 12:00 UTC


221100Z 2212/2312 23010KT 9999 FEW040
BECMG 2216/2218 VRB04KT
BECMG 2308/2310 23010KT



MET'MAP, your aeronautical weather chart ! - Copyright ORBIFLY December 2007 - Disclaimer

ORBIFLY MET'MAP TEAM :

Programming & Development : Alexandra Zaïnal
Concept & original design : Baudouin d'Aumeries
Assistance for programming : Marc-Olivier Méhu
Technical & hardware support : Manuel Goepfert

Contact : metmap@orbifly.com




SOURCES & CREDITS :

   NOAA